createdAt,value
2023-07-31T00:04:17.099Z,30.33
2023-07-31T00:09:19.540Z,30.50
2023-07-31T00:14:21.689Z,30.27
2023-07-31T00:19:24.304Z,30.29
2023-07-31T00:24:26.716Z,29.92
2023-07-31T00:29:29.014Z,29.84
2023-07-31T00:34:31.403Z,29.82
2023-07-31T00:39:35.254Z,29.97
2023-07-31T00:44:37.438Z,29.72
2023-07-31T00:49:39.718Z,30.09
2023-07-31T00:54:42.166Z,29.84
2023-07-31T00:59:44.860Z,29.14
2023-07-31T01:04:48.215Z,28.82
2023-07-31T01:10:06.139Z,28.09
2023-07-31T01:15:12.802Z,27.79
2023-07-31T01:20:20.249Z,28.81
2023-07-31T01:25:40.907Z,28.99
2023-07-31T01:30:49.199Z,29.05
2023-07-31T01:35:51.599Z,28.61
2023-07-31T01:40:55.253Z,28.66
2023-07-31T01:45:57.512Z,28.51
2023-07-31T01:51:02.506Z,29.10
2023-07-31T01:56:04.888Z,28.56
2023-07-31T02:01:07.155Z,28.67
2023-07-31T02:06:09.455Z,28.75
2023-07-31T02:11:11.816Z,28.18
2023-07-31T02:16:14.152Z,28.07
2023-07-31T02:21:16.502Z,28.44
2023-07-31T02:26:18.774Z,28.12
2023-07-31T02:31:23.206Z,27.06
2023-07-31T02:36:25.671Z,27.21
2023-07-31T02:41:27.934Z,27.28
2023-07-31T02:46:30.858Z,26.08
2023-07-31T02:51:33.287Z,26.95
2023-07-31T02:56:35.636Z,27.49
2023-07-31T03:01:38.179Z,27.74
2023-07-31T03:06:40.895Z,27.90
2023-07-31T03:11:43.407Z,27.75
2023-07-31T03:16:45.635Z,27.88
2023-07-31T03:21:47.907Z,27.97
2023-07-31T03:26:50.230Z,27.55
2023-07-31T03:31:52.498Z,27.99
2023-07-31T03:36:54.768Z,28.01
2023-07-31T03:41:56.934Z,27.98
2023-07-31T03:46:59.248Z,28.02
2023-07-31T03:52:01.639Z,27.95
2023-07-31T03:57:04.049Z,28.10
2023-07-31T04:02:06.696Z,27.91
2023-07-31T04:07:08.943Z,27.94
2023-07-31T04:12:11.123Z,28.10
2023-07-31T04:17:13.361Z,28.10
2023-07-31T04:22:15.646Z,28.13
2023-07-31T04:27:17.839Z,27.85
2023-07-31T04:32:21.638Z,27.94
2023-07-31T04:37:23.949Z,27.97
2023-07-31T04:42:26.540Z,28.04
2023-07-31T04:47:28.792Z,28.35
2023-07-31T04:52:31.057Z,28.25
2023-07-31T04:57:33.275Z,28.20
2023-07-31T05:02:35.560Z,28.12
2023-07-31T05:07:38.356Z,28.37
2023-07-31T05:12:40.521Z,28.46
2023-07-31T05:17:42.691Z,28.50
2023-07-31T05:22:44.849Z,28.77
2023-07-31T05:27:47.026Z,28.79
2023-07-31T05:32:49.430Z,29.04
2023-07-31T05:37:51.711Z,29.30
2023-07-31T05:42:53.863Z,29.38
2023-07-31T05:47:56.016Z,29.72
2023-07-31T05:52:58.313Z,29.78
2023-07-31T05:58:01.432Z,29.93
2023-07-31T06:03:03.916Z,30.09
2023-07-31T06:08:06.153Z,30.26
2023-07-31T06:13:08.401Z,30.25
2023-07-31T06:18:11.833Z,30.25
2023-07-31T06:23:14.055Z,30.18
2023-07-31T06:28:16.276Z,30.24
2023-07-31T06:33:18.568Z,30.69
2023-07-31T06:38:27.621Z,30.62
2023-07-31T06:43:29.945Z,30.67
2023-07-31T06:48:32.181Z,30.81
2023-07-31T06:53:34.458Z,31.04
2023-07-31T06:58:36.610Z,31.04
2023-07-31T07:03:38.840Z,31.12
2023-07-31T07:08:40.999Z,31.22
2023-07-31T07:13:43.261Z,31.34
2023-07-31T07:18:58.367Z,31.64
2023-07-31T07:24:06.300Z,31.66
2023-07-31T07:29:09.438Z,31.75
2023-07-31T07:34:11.778Z,31.80
2023-07-31T07:39:14.032Z,31.95
2023-07-31T07:44:16.254Z,32.13
2023-07-31T07:49:18.418Z,31.85
2023-07-31T07:54:22.542Z,32.00
2023-07-31T07:59:24.873Z,31.83
2023-07-31T08:04:27.060Z,31.97
2023-07-31T08:09:29.289Z,32.13
2023-07-31T08:14:33.373Z,32.42
2023-07-31T08:19:35.971Z,32.49
2023-07-31T08:24:38.187Z,32.78
2023-07-31T08:29:40.589Z,32.95
2023-07-31T08:34:43.216Z,33.29
2023-07-31T08:39:45.354Z,33.48
2023-07-31T08:44:48.483Z,33.91
2023-07-31T08:49:52.858Z,34.03
2023-07-31T08:54:54.995Z,34.25
2023-07-31T08:59:59.112Z,34.26
2023-07-31T09:05:01.803Z,34.63
2023-07-31T09:10:05.300Z,34.57
2023-07-31T09:15:08.061Z,34.20
2023-07-31T09:20:21.369Z,33.29
2023-07-31T09:25:26.130Z,34.48
2023-07-31T09:30:28.944Z,34.71
2023-07-31T09:35:36.148Z,34.67
2023-07-31T09:40:40.683Z,35.16
2023-07-31T09:45:44.268Z,35.01
2023-07-31T09:50:48.429Z,35.64
2023-07-31T09:55:50.786Z,35.72
2023-07-31T10:00:53.083Z,35.44
2023-07-31T10:05:58.383Z,35.67
2023-07-31T10:11:02.170Z,36.00
2023-07-31T10:16:05.167Z,36.10
2023-07-31T10:21:07.895Z,36.53
2023-07-31T10:26:11.490Z,36.61
2023-07-31T10:31:14.917Z,36.81
2023-07-31T10:36:21.547Z,36.64
2023-07-31T10:41:33.329Z,36.56
2023-07-31T10:46:36.372Z,36.76
2023-07-31T10:51:38.781Z,37.09
2023-07-31T10:56:41.569Z,37.20
2023-07-31T11:02:04.149Z,37.60
2023-07-31T11:07:09.766Z,37.64
2023-07-31T11:12:13.331Z,37.83
2023-07-31T11:17:15.647Z,38.31
2023-07-31T11:22:19.953Z,37.99
2023-07-31T11:27:22.180Z,38.13
2023-07-31T11:32:26.149Z,38.62
2023-07-31T11:37:44.623Z,38.44
2023-07-31T11:42:47.029Z,38.80
2023-07-31T11:47:49.501Z,38.06
2023-07-31T11:52:56.621Z,38.79
2023-07-31T11:58:00.744Z,38.38
2023-07-31T12:03:03.204Z,38.67
2023-07-31T12:08:17.941Z,38.86
2023-07-31T12:13:29.600Z,39.24
2023-07-31T12:18:40.026Z,39.62
2023-07-31T12:23:43.979Z,39.40
2023-07-31T12:28:50.220Z,39.32
2023-07-31T12:33:56.030Z,39.61
2023-07-31T12:39:00.019Z,40.02
2023-07-31T12:49:28.057Z,39.99
2023-07-31T12:54:30.293Z,40.19
2023-07-31T12:59:32.460Z,40.73
2023-07-31T13:04:34.658Z,40.78
2023-07-31T13:09:38.602Z,40.82
2023-07-31T13:14:41.025Z,40.98
2023-07-31T13:19:44.638Z,40.56
2023-07-31T13:24:46.943Z,40.43
2023-07-31T13:29:58.696Z,40.93
2023-07-31T13:35:03.770Z,41.00
2023-07-31T13:40:06.783Z,41.06
2023-07-31T13:45:09.372Z,41.13
2023-07-31T13:50:11.634Z,41.34
2023-07-31T13:55:14.601Z,41.44
2023-07-31T14:00:17.319Z,41.82
2023-07-31T14:05:22.649Z,41.76
2023-07-31T14:10:25.672Z,42.22
2023-07-31T14:15:28.336Z,42.23
2023-07-31T14:20:31.662Z,42.05
2023-07-31T14:25:34.025Z,42.53
2023-07-31T14:30:36.568Z,42.61
2023-07-31T14:35:38.973Z,42.99
2023-07-31T14:40:41.316Z,43.32
2023-07-31T14:45:43.761Z,44.60
2023-07-31T14:50:46.468Z,44.64
2023-07-31T14:55:48.760Z,45.32
2023-07-31T15:00:51.059Z,45.43
2023-07-31T15:05:53.384Z,45.49
2023-07-31T15:10:58.750Z,45.85
2023-07-31T15:16:01.438Z,45.54
2023-07-31T15:21:03.771Z,45.59
2023-07-31T15:26:06.166Z,45.33
2023-07-31T15:31:08.441Z,45.27
2023-07-31T15:36:10.738Z,45.41
2023-07-31T15:41:13.098Z,45.48
2023-07-31T15:46:15.650Z,45.14
2023-07-31T15:51:18.032Z,45.85
2023-07-31T15:56:20.594Z,45.18
2023-07-31T16:01:22.995Z,45.33
2023-07-31T16:06:25.335Z,44.97
2023-07-31T16:11:28.714Z,44.72
2023-07-31T16:16:31.062Z,44.87
2023-07-31T16:21:33.444Z,44.37
2023-07-31T16:26:39.034Z,44.18
2023-07-31T16:31:55.300Z,43.26
2023-07-31T16:36:59.436Z,41.53
2023-07-31T16:42:01.889Z,40.24
2023-07-31T16:47:04.233Z,39.58
2023-07-31T16:52:09.081Z,38.35
2023-07-31T16:57:14.231Z,37.56
2023-07-31T17:02:19.600Z,37.58
2023-07-31T17:07:22.689Z,37.19
2023-07-31T17:12:28.014Z,36.91
2023-07-31T17:17:30.513Z,36.64
2023-07-31T17:22:47.187Z,36.16
2023-07-31T17:27:53.561Z,35.56
2023-07-31T17:32:56.313Z,35.48
2023-07-31T17:38:01.427Z,35.11
2023-07-31T17:43:06.888Z,35.33
2023-07-31T17:48:27.684Z,35.07
2023-07-31T17:53:31.465Z,35.17
2023-07-31T17:58:35.874Z,34.87
2023-07-31T18:03:38.303Z,34.50
2023-07-31T18:08:40.768Z,34.30
2023-07-31T18:13:42.977Z,34.15
2023-07-31T18:18:45.278Z,34.32
2023-07-31T18:23:47.634Z,34.28
2023-07-31T18:28:50.410Z,34.22
2023-07-31T18:33:52.878Z,33.83
2023-07-31T18:38:57.932Z,34.08
2023-07-31T18:44:00.500Z,33.56
2023-07-31T18:49:03.037Z,34.37
2023-07-31T18:54:07.629Z,34.35
2023-07-31T18:59:09.852Z,34.34
2023-07-31T19:04:12.462Z,33.56
2023-07-31T19:09:15.387Z,33.41
2023-07-31T19:14:20.045Z,34.09
2023-07-31T19:19:22.553Z,33.55
2023-07-31T19:24:29.666Z,33.38
2023-07-31T19:29:39.469Z,34.00
2023-07-31T19:34:43.500Z,33.44
2023-07-31T19:39:45.896Z,33.33
2023-07-31T19:44:48.248Z,33.45
2023-07-31T19:49:50.660Z,33.36
2023-07-31T19:54:53.894Z,33.19
2023-07-31T19:59:56.158Z,32.83
2023-07-31T20:04:58.516Z,32.81
2023-07-31T20:10:02.247Z,32.85
2023-07-31T20:15:06.054Z,32.62
2023-07-31T20:20:09.161Z,32.45
2023-07-31T20:25:11.823Z,32.44
2023-07-31T20:30:15.178Z,32.32
2023-07-31T20:35:21.308Z,32.17
2023-07-31T20:40:24.563Z,32.09
2023-07-31T20:45:30.387Z,32.34
2023-07-31T20:50:33.831Z,32.51
2023-07-31T20:55:39.632Z,32.45
2023-07-31T21:00:45.253Z,32.40
2023-07-31T21:05:51.936Z,31.79
2023-07-31T21:10:57.493Z,32.21
2023-07-31T21:16:03.137Z,32.07
2023-07-31T21:21:05.472Z,32.26
2023-07-31T21:26:07.894Z,31.86
2023-07-31T21:31:14.406Z,32.26
2023-07-31T21:36:17.519Z,32.13
2023-07-31T21:41:19.746Z,32.21
2023-07-31T21:46:22.048Z,31.98
2023-07-31T21:51:24.774Z,32.08
2023-07-31T21:56:27.311Z,31.85
2023-07-31T22:01:29.503Z,31.85
2023-07-31T22:06:31.682Z,31.96
2023-07-31T22:11:33.912Z,31.89
2023-07-31T22:16:36.540Z,31.92
2023-07-31T22:21:39.282Z,31.69
2023-07-31T22:26:42.735Z,31.78
2023-07-31T22:31:45.301Z,31.76
2023-07-31T22:36:47.490Z,31.83
2023-07-31T22:41:52.923Z,31.79
2023-07-31T22:46:55.925Z,31.66
2023-07-31T22:51:58.057Z,31.60
2023-07-31T22:57:00.456Z,31.37
2023-07-31T23:02:02.953Z,31.54
2023-07-31T23:07:05.400Z,31.41
2023-07-31T23:12:07.851Z,31.37
2023-07-31T23:17:10.069Z,31.30
2023-07-31T23:22:12.512Z,31.29
2023-07-31T23:27:14.662Z,31.36
2023-07-31T23:32:19.083Z,31.06
2023-07-31T23:37:21.242Z,31.23
2023-07-31T23:42:23.531Z,31.28
2023-07-31T23:47:25.755Z,31.16
2023-07-31T23:52:28.208Z,31.09
2023-07-31T23:57:31.015Z,31.19
